Accueil
METAR-TAF:

METAR-TAF

Aéroports :

Aérodrome de Wallis-Hihifo

Wallis, France

latitude: 13-14S, longitude: 176-10W, altitude: 23 m

METAR: absent

Heure: 14:09 (02:09 UTC)

Prévision

Le bulletin a été fait il y a 3 heures et 9 minutes, à 23:00 UTC
Prévision valable du 17 à 00 UTC au 17 à 24 UTC
Vent 8 kt de sud/sud-est
Visibilité 10 km ou plus
Nuages épars à une hauteur de 2600 ft
Probabilité 40% :
Temporairement
du 17 à 02 UTC au 17 à 05 UTC
averses de pluie

TAF: NLWW 162300Z 1700/1724 15008KT 9999 SCT026 PROB40 TEMPO 1702/1705 SHRA

Observations et prévisions météorologiques de plus de 4000 aéroports (messages METAR et TAF).

Les stations disponibles sont représentées par des disques jaunes et rouges sur la carte.

Passer la souris dessus pour voir le nom de la station.

Cliquer dessus pour voir les observations et prévisions météorologiques.

Pour changer de carte: cliquez sur les boutons verts avec une croix noire pour zoomer, sur le bouton vert avec un tiret pour effectuer un zoom arrière, ou sur les flèches vertes pour les cartes adjacentes.


METAR-TAF: